Biotrans — JWPN — position and weather

sailwx.info

Track history (hours):
 
Tides and Currents Weather Stations Pressure Air Temp Water Temp Dewpoint Dewpoint Depression Visibility Wind Speed Wind Dir Waves Ship Positions

Biotrans

Last reported at 2017-Dec-11 17:00 UTC. Time now 2017-Dec-12 21:59 UTC.
Position N 67°57' E 015°30'.

Length 55 m; draft 5.5 m.

Type: Cargo ship. MMSI: 259260000.

Date/timePositionNaut miles runAvg speedWind from/ knotsBaromVisibWave heightAir tempDewpointWater temp
2017-Dec-11 17:00N 67°57' E 015°30'4 8.3
2017-Dec-11 16:30N 67°59' E 015°21'2 4.0
2017-Dec-11 16:00N 68°01' E 015°20'0 0.0
2017-Dec-11 15:30N 68°01' E 015°20'0 0.0
2017-Dec-11 15:00N 68°01' E 015°20'3 5.3
2017-Dec-11 14:29N 67°58' E 015°20'4 9.0
2017-Dec-11 14:00N 67°55' E 015°14'5 9.6
2017-Dec-11 13:30N 67°55' E 015°01'5 9.9
2017-Dec-11 13:00N 67°53' E 014°49'5 9.9
2017-Dec-11 12:30N 67°50' E 014°38'5 9.6
2017-Dec-11 12:00N 67°46' E 014°32'510.2
2017-Dec-11 11:30N 67°41' E 014°31'510.1
2017-Dec-11 11:00N 67°36' E 014°30'510.3
2017-Dec-11 10:30N 67°31' E 014°29'510.6
2017-Dec-11 10:01N 67°26' E 014°27'510.4
2017-Dec-11 09:30N 67°21' E 014°25'4 7.2
2017-Dec-11 09:00N 67°17' E 014°23'0 0.0
2017-Dec-11 08:30N 67°17' E 014°23'0 0.0
2017-Dec-11 08:00N 67°17' E 014°23'0 0.0
2017-Dec-11 07:30N 67°17' E 014°23'0 0.9
2017-Dec-11 07:01N 67°17' E 014°21'3 5.4
2017-Dec-11 06:30N 67°15' E 014°16'2 4.9
2017-Dec-11 06:00N 67°14' E 014°11'3 5.4
2017-Dec-11 05:31N 67°12' E 014°07'3 5.9
2017-Dec-11 05:01N 67°09' E 014°02'3 6.9
2017-Dec-11 04:30N 67°07' E 013°56'1 1.4
2017-Dec-11 04:00N 67°07' E 013°54'3 6.7
2017-Dec-11 03:31N 67°04' E 013°53'5 9.9
2017-Dec-11 03:01N 67°01' E 013°43'5 9.9
2017-Dec-11 02:31N 66°58' E 013°33'4 8.7
2017-Dec-11 02:00N 66°54' E 013°27'5 9.6
2017-Dec-11 01:30N 66°51' E 013°18'5 9.2
2017-Dec-11 01:00N 66°47' E 013°14'5 9.8
2017-Dec-11 00:30N 66°42' E 013°10'5 9.8
2017-Dec-11 00:01N 66°37' E 013°05'5 9.2
2017-Dec-10 23:30N 66°33' E 013°02'4 8.7
2017-Dec-10 23:00N 66°29' E 012°59'5 9.9
2017-Dec-10 22:30N 66°24' E 012°58'5 9.1
2017-Dec-10 22:00N 66°20' E 012°52'5 9.3
2017-Dec-10 21:30N 66°18' E 012°42'5 9.6
2017-Dec-10 21:01N 66°15' E 012°32'5 9.5
2017-Dec-10 20:30N 66°12' E 012°22'5 9.6
2017-Dec-10 20:00N 66°10' E 012°12'5 9.3
2017-Dec-10 19:30N 66°06' E 012°07'5 9.3
2017-Dec-10 19:00N 66°01' E 012°11'2 5.0
2017-Dec-10 18:30N 66°00' E 012°16'0 0.0
2017-Dec-10 18:00N 66°00' E 012°16'0 0.0
2017-Dec-10 17:30N 66°00' E 012°16'0 0.0
2017-Dec-10 17:00N 66°00' E 012°16'0 0.0
2017-Dec-10 16:30N 66°00' E 012°16'0 0.4
2017-Dec-10 16:00N 66°00' E 012°16'1 2.5
2017-Dec-10 15:30N 66°01' E 012°13'3 5.1
2017-Dec-10 15:00N 66°02' E 012°07'5 9.1
2017-Dec-10 14:30N 65°57' E 012°04'5 9.1
2017-Dec-10 14:00N 65°55' E 011°55'2 3.4
2017-Dec-10 13:30N 65°53' E 011°56'1 2.9
2017-Dec-10 13:00N 65°54' E 011°55'5 9.3
2017-Dec-10 12:30N 65°56' E 012°05'3 6.9
2017-Dec-10 12:00N 65°55' E 012°12'5 8.9
2017-Dec-10 11:30N 65°56' E 012°23'5 9.8
2017-Dec-10 11:00N 65°51' E 012°22'5 9.8
2017-Dec-10 10:30N 65°47' E 012°19'5 9.7
2017-Dec-10 10:00N 65°42' E 012°16'5 9.8
2017-Dec-10 09:30N 65°37' E 012°12'5 9.8
2017-Dec-10 09:00N 65°33' E 012°05'5 9.7
2017-Dec-10 08:30N 65°29' E 011°59'4 8.6
2017-Dec-10 08:00N 65°25' E 011°57'4 8.7
2017-Dec-10 07:30N 65°21' E 012°03'5 9.5
2017-Dec-10 07:00N 65°17' E 011°58'5 9.9
2017-Dec-10 06:30N 65°13' E 011°53'5 9.6
2017-Dec-10 06:00N 65°08' E 011°50'5 9.5
2017-Dec-10 05:30N 65°04' E 011°45'5 9.3
2017-Dec-10 05:00N 65°00' E 011°38'5 9.3
2017-Dec-10 04:31N 64°57' E 011°30'5 9.5
2017-Dec-10 04:00N 64°54' E 011°21'510.1
2017-Dec-10 03:30N 64°51' E 011°13'510.0
2017-Dec-10 03:01N 64°47' E 011°05'5 9.6
2017-Dec-10 02:30N 64°44' E 010°56'5 9.4
2017-Dec-10 02:00N 64°41' E 010°48'5 9.6
2017-Dec-10 01:30N 64°37' E 010°42'5 9.7
2017-Dec-10 01:00N 64°32' E 010°36'5 9.5
2017-Dec-10 00:30N 64°28' E 010°30'5 9.2
2017-Dec-10 00:00N 64°24' E 010°26'5 8.9
2017-Dec-09 23:30N 64°20' E 010°27'5 9.5
2017-Dec-09 23:00N 64°16' E 010°19'4 8.9
2017-Dec-09 22:30N 64°13' E 010°13'5 9.8
2017-Dec-09 22:00N 64°09' E 010°07'5 9.6
2017-Dec-09 21:30N 64°05' E 010°00'4 7.6
2017-Dec-09 21:00N 64°01' E 009°59'5 9.8
2017-Dec-09 20:30N 63°57' E 009°54'4 7.2
2017-Dec-09 20:00N 63°53' E 009°52'0 0.0
2017-Dec-09 19:30N 63°53' E 009°52'0 0.0
2017-Dec-09 19:00N 63°53' E 009°52'0 0.0
2017-Dec-09 18:31N 63°53' E 009°52'0 0.0
2017-Dec-09 18:00N 63°53' E 009°52'0 0.0
2017-Dec-09 17:30N 63°53' E 009°52'0 0.0
2017-Dec-09 17:00N 63°53' E 009°52'0 0.0
2017-Dec-09 16:30N 63°53' E 009°52'0 0.0
2017-Dec-09 16:00N 63°53' E 009°52'0 0.0
2017-Dec-09 15:30N 63°53' E 009°52'0 0.7
2017-Dec-09 15:00N 63°54' E 009°53'3 6.7
2017-Dec-09 14:30N 63°53' E 009°45'5 9.7
2017-Dec-09 14:00N 63°50' E 009°37'5 9.9
2017-Dec-09 13:30N 63°45' E 009°32'5 9.5
2017-Dec-09 13:00N 63°40' E 009°29'3 6.3
2017-Dec-09 12:30N 63°38' E 009°34'4 8.8
2017-Dec-09 12:00N 63°39' E 009°43'2 4.2
2017-Dec-09 11:30N 63°37' E 009°43'0 0.0
2017-Dec-09 11:00N 63°37' E 009°43'0 0.0
2017-Dec-09 10:30N 63°37' E 009°43'0 0.0
2017-Dec-09 10:00N 63°37' E 009°43'0 0.0
2017-Dec-09 09:30N 63°37' E 009°43'0 0.0
2017-Dec-09 09:00N 63°37' E 009°43'0 0.0
2017-Dec-09 08:30N 63°37' E 009°43'0 0.0
2017-Dec-09 08:00N 63°37' E 009°43'0 0.0
2017-Dec-09 07:31N 63°37' E 009°43'0 0.0
2017-Dec-09 06:59N 63°37' E 009°43'0 0.0
2017-Dec-09 06:30N 63°37' E 009°43'0 0.0
2017-Dec-09 06:00N 63°37' E 009°43'0 0.0
2017-Dec-09 05:29N 63°37' E 009°43'0 0.0
2017-Dec-09 05:00N 63°37' E 009°43'0 0.0
2017-Dec-09 04:30N 63°37' E 009°43'0 0.8
2017-Dec-09 04:01N 63°37' E 009°44'2 4.5
2017-Dec-09 03:31N 63°39' E 009°41'4 8.7
2017-Dec-09 03:00N 63°38' E 009°31'3 6.5
2017-Dec-09 02:31N 63°41' E 009°29'5 9.4
2017-Dec-09 01:59N 63°45' E 009°32'5 9.4
2017-Dec-09 01:30N 63°50' E 009°37'5 9.3
2017-Dec-09 00:59N 63°53' E 009°44'5 9.3
2017-Dec-09 00:30N 63°57' E 009°49'4 9.0
2017-Dec-09 00:00N 63°60' E 009°57'4 8.8
2017-Dec-08 23:30N 64°03' E 010°03'4 7.7
2017-Dec-08 23:00N 64°07' E 010°03'4 9.1
2017-Dec-08 22:31N 64°11' E 010°09'5 9.2
2017-Dec-08 22:00N 64°14' E 010°16'4 8.4
2017-Dec-08 21:30N 64°18' E 010°21'4 8.6
2017-Dec-08 21:00N 64°21' E 010°27'4 8.5
2017-Dec-08 20:30N 64°26' E 010°27'4 8.8
2017-Dec-08 20:00N 64°29' E 010°32'5 9.5
2017-Dec-08 19:30N 64°33' E 010°39'3 6.3
2017-Dec-08 19:00N 64°32' E 010°45'0 0.7
2017-Dec-08 18:30N 64°32' E 010°45'0 0.0
2017-Dec-08 18:00N 64°32' E 010°45'0 0.0
2017-Dec-08 17:30N 64°32' E 010°45'0 0.0
2017-Dec-08 17:00N 64°32' E 010°45'0 0.0
2017-Dec-08 16:30N 64°32' E 010°45'2 4.1
2017-Dec-08 16:00N 64°34' E 010°44'5 9.5
2017-Dec-08 15:29N 64°38' E 010°47'5 9.5
2017-Dec-08 15:00N 64°42' E 010°52'5 9.8
2017-Dec-08 14:30N 64°46' E 011°01'5 9.6
2017-Dec-08 14:00N 64°49' E 011°09'4 8.9
2017-Dec-08 13:30N 64°52' E 011°16'4 8.9
2017-Dec-08 13:00N 64°56' E 011°22'3 6.5
2017-Dec-08 12:31N 64°58' E 011°16'2 3.9
2017-Dec-08 12:00N 64°57' E 011°11'0 0.0
2017-Dec-08 11:30N 64°57' E 011°11'0 0.2
2017-Dec-08 11:01N 64°57' E 011°11'5 9.1
2017-Dec-08 10:30N 64°57' E 011°22'4 8.6
2017-Dec-08 10:01N 64°53' E 011°19'3 5.0
2017-Dec-08 09:31N 64°52' E 011°15'0 0.0
2017-Dec-08 09:01N 64°52' E 011°15'0 0.0
2017-Dec-08 08:31N 64°52' E 011°15'0 0.0
2017-Dec-08 08:00N 64°52' E 011°15'2 4.2
2017-Dec-08 07:31N 64°53' E 011°18'5 9.5
2017-Dec-08 07:00N 64°56' E 011°27'5 9.3
2017-Dec-08 06:30N 64°59' E 011°36'4 8.3
2017-Dec-08 06:00N 65°01' E 011°44'1 2.6
2017-Dec-08 05:30N 65°00' E 011°44'0 0.0
2017-Dec-08 05:00N 65°00' E 011°44'0 0.0
2017-Dec-08 04:30N 65°00' E 011°44'0 0.0
2017-Dec-08 04:00N 65°00' E 011°44'2 4.5
2017-Dec-08 03:30N 65°02' E 011°44'5 9.3
2017-Dec-08 03:00N 65°06' E 011°49'5 9.3
2017-Dec-08 02:30N 65°11' E 011°51'4 8.8
2017-Dec-08 02:00N 65°15' E 011°56'5 9.0
2017-Dec-08 01:30N 65°19' E 012°00'3 6.4
2017-Dec-08 01:00N 65°22' E 012°00'4 8.2
2017-Dec-08 00:30N 65°26' E 011°56'4 8.7
2017-Dec-08 00:00N 65°30' E 011°60'5 9.3
2017-Dec-07 23:30N 65°34' E 012°06'5 9.0
2017-Dec-07 23:00N 65°38' E 012°12'4 8.8
2017-Dec-07 22:31N 65°42' E 012°15'5 9.0
2017-Dec-07 21:59N 65°46' E 012°19'5 9.2
2017-Dec-07 21:30N 65°51' E 012°22'5 9.1
2017-Dec-07 21:00N 65°55' E 012°23'5 9.2
2017-Dec-07 20:30N 65°59' E 012°29'5 9.3
2017-Dec-07 20:01N 66°03' E 012°36'5 9.2
2017-Dec-07 19:30N 66°06' E 012°44'5 9.3
2017-Dec-07 18:59N 66°10' E 012°50'4 8.7
2017-Dec-07 18:30N 66°13' E 012°58'1 1.2
2017-Dec-07 17:59N 66°12' E 012°58'0 0.0
2017-Dec-07 17:30N 66°12' E 012°58'0 0.0
2017-Dec-07 16:59N 66°12' E 012°58'0 0.0
2017-Dec-07 16:30N 66°12' E 012°58'0 0.0
2017-Dec-07 15:59N 66°12' E 012°58'0 0.2
2017-Dec-07 15:30N 66°12' E 012°58'3 6.3
2017-Dec-07 15:00N 66°11' E 012°51'5 9.5
2017-Dec-07 14:29N 66°07' E 012°45'5 9.7
2017-Dec-07 14:00N 66°03' E 012°37'5 9.7
2017-Dec-07 13:30N 65°60' E 012°29'5 9.6
2017-Dec-07 13:00N 65°57' E 012°20'4 7.3
2017-Dec-07 12:30N 65°54' E 012°13'0 0.0
2017-Dec-07 12:00N 65°54' E 012°13'2 3.9
2017-Dec-07 11:30N 65°56' E 012°11'4 7.9
2017-Dec-07 11:00N 65°60' E 012°06'3 6.1
2017-Dec-07 10:30N 66°01' E 012°13'1 2.9
2017-Dec-07 10:00N 66°00' E 012°16'0 0.0
2017-Dec-07 09:30N 66°00' E 012°16'0 0.0
2017-Dec-07 09:00N 66°00' E 012°16'0 0.0
2017-Dec-07 08:30N 66°00' E 012°16'0 0.0
2017-Dec-07 08:00N 66°00' E 012°16'0 0.0
2017-Dec-07 07:30N 66°00' E 012°16'3 5.6
2017-Dec-07 07:00N 66°02' E 012°11'5 9.5
2017-Dec-07 06:30N 66°06' E 012°07'5 9.8
2017-Dec-07 06:00N 66°11' E 012°13'510.6
2017-Dec-07 05:29N 66°13' E 012°24'510.6
2017-Dec-07 05:00N 66°16' E 012°36'510.4
2017-Dec-07 04:30N 66°19' E 012°46'510.3
2017-Dec-07 04:01N 66°21' E 012°57'5 9.8
2017-Dec-07 03:30N 66°26' E 012°59'5 9.8
2017-Dec-07 03:00N 66°31' E 012°58'4 8.9
2017-Dec-07 02:30N 66°35' E 013°05'510.0
2017-Dec-07 02:00N 66°40' E 013°07'510.1
2017-Dec-07 01:30N 66°44' E 013°12'5 9.9
2017-Dec-07 01:00N 66°49' E 013°16'5 9.4
2017-Dec-07 00:30N 66°53' E 013°23'4 9.0
2017-Dec-07 00:00N 66°57' E 013°29'4 9.0
2017-Dec-06 23:31N 66°60' E 013°37'510.2
2017-Dec-06 23:01N 67°02' E 013°48'510.1
2017-Dec-06 22:30N 67°06' E 013°58'5 9.8
2017-Dec-06 22:01N 67°10' E 014°03'510.2
2017-Dec-06 21:30N 67°15' E 014°10'510.3
2017-Dec-06 21:01N 67°19' E 014°18'  
2017-Dec-04 10:30N 67°40' E 014°33'4 8.2
2017-Dec-04 10:00N 67°38' E 014°42'5 9.6
2017-Dec-04 09:30N 67°38' E 014°55'5 9.8
2017-Dec-04 09:00N 67°37' E 015°08'5 9.9
2017-Dec-04 08:30N 67°37' E 015°21'1 1.4
2017-Dec-04 08:00N 67°36' E 015°22'0 0.0
2017-Dec-04 07:28N 67°36' E 015°22'3 6.0
2017-Dec-04 07:00N 67°37' E 015°15'5 9.6
2017-Dec-04 06:30N 67°36' E 015°03'510.0
2017-Dec-04 06:00N 67°34' E 014°51'5 9.9
2017-Dec-04 05:30N 67°31' E 014°41'5 9.8
2017-Dec-04 05:00N 67°27' E 014°33'510.2
2017-Dec-04 04:30N 67°23' E 014°26'510.1
2017-Dec-04 04:00N 67°19' E 014°18'510.1
2017-Dec-04 03:30N 67°15' E 014°11'5 9.8
2017-Dec-04 03:00N 67°11' E 014°04'5 9.6
2017-Dec-04 02:30N 67°06' E 013°58'5 9.9
2017-Dec-04 02:00N 67°03' E 013°50'5 9.8
2017-Dec-04 01:30N 67°00' E 013°39'5 9.3
2017-Dec-04 01:01N 66°58' E 013°29'4 8.8
2017-Dec-04 00:30N 66°53' E 013°24'5 9.5
2017-Dec-04 00:00N 66°50' E 013°16'5 9.8
2017-Dec-03 23:30N 66°45' E 013°13'4 8.1
2017-Dec-03 23:00N 66°41' E 013°17'3 5.3
2017-Dec-03 22:30N 66°40' E 013°23'4 8.8
2017-Dec-03 22:00N 66°41' E 013°12'5 8.9
2017-Dec-03 21:30N 66°37' E 013°05'4 8.6
2017-Dec-03 21:00N 66°33' E 013°02'4 8.1
2017-Dec-03 20:30N 66°29' E 012°59'5 9.1
2017-Dec-03 20:00N 66°25' E 012°59'5 9.1
2017-Dec-03 19:30N 66°20' E 012°57'5 9.2
2017-Dec-03 19:00N 66°16' E 012°55'5 9.0
2017-Dec-03 18:30N 66°12' E 012°51'4 8.5
2017-Dec-03 18:00N 66°08' E 012°46'2 4.5
2017-Dec-03 17:30N 66°10' E 012°41'0 0.0
2017-Dec-03 17:00N 66°10' E 012°41'3 5.4
2017-Dec-03 16:29N 66°12' E 012°38'4 8.3
2017-Dec-03 15:59N 66°15' E 012°30'4 8.6
2017-Dec-03 15:30N 66°17' E 012°22'4 8.7
2017-Dec-03 15:00N 66°21' E 012°24'1 1.8
2017-Dec-03 14:30N 66°22' E 012°23'0 0.0
2017-Dec-03 14:00N 66°22' E 012°23'0 0.0
2017-Dec-03 13:30N 66°22' E 012°23'0 0.0
2017-Dec-03 13:00N 66°22' E 012°23'0 0.0
2017-Dec-03 12:30N 66°22' E 012°23'0 0.0
2017-Dec-03 12:00N 66°22' E 012°23'0 0.0
2017-Dec-03 11:30N 66°22' E 012°23'0 0.0
2017-Dec-03 11:00N 66°22' E 012°23'0 0.0
2017-Dec-03 10:30N 66°22' E 012°23'0 0.0
2017-Dec-03 10:00N 66°22' E 012°23'0 0.0
2017-Dec-03 09:30N 66°22' E 012°23'0 0.0
2017-Dec-03 09:00N 66°22' E 012°23'0 0.0
2017-Dec-03 08:30N 66°22' E 012°23'0 0.0
2017-Dec-03 08:00N 66°22' E 012°23'0 0.0
2017-Dec-03 07:30N 66°22' E 012°23'0 0.0
2017-Dec-03 07:00N 66°22' E 012°23'0 0.0
2017-Dec-03 06:30N 66°22' E 012°23'0 0.0
2017-Dec-03 06:00N 66°22' E 012°23'2 3.5
2017-Dec-03 05:30N 66°20' E 012°23'4 7.9
2017-Dec-03 05:00N 66°16' E 012°24'4 7.7
2017-Dec-03 04:30N 66°14' E 012°32'4 8.0
2017-Dec-03 04:00N 66°11' E 012°39'4 9.0
2017-Dec-03 03:30N 66°07' E 012°40'4 8.9
2017-Dec-03 03:00N 66°03' E 012°36'5 9.5
2017-Dec-03 02:30N 65°59' E 012°29'5 9.6
2017-Dec-03 01:59N 65°55' E 012°23'5 9.0
2017-Dec-03 01:29N 65°50' E 012°22'4 8.8
2017-Dec-03 01:00N 65°46' E 012°19'5 9.2
2017-Dec-03 00:30N 65°42' E 012°15'5 9.3
2017-Dec-02 23:59N 65°37' E 012°12'5 9.1
2017-Dec-02 23:30N 65°34' E 012°06'5 9.2
2017-Dec-02 23:00N 65°30' E 011°60'4 9.0
2017-Dec-02 22:30N 65°26' E 011°56'4 8.3
2017-Dec-02 22:00N 65°22' E 012°02'4 7.8
2017-Dec-02 21:30N 65°18' E 011°59'4 9.0
2017-Dec-02 21:00N 65°14' E 011°55'4 8.9
2017-Dec-02 20:30N 65°10' E 011°51'4 9.0
2017-Dec-02 20:00N 65°06' E 011°48'5 9.5
2017-Dec-02 19:30N 65°02' E 011°42'5 9.8
2017-Dec-02 19:00N 64°58' E 011°34'510.2
2017-Dec-02 18:30N 64°55' E 011°24'510.2
2017-Dec-02 18:01N 64°52' E 011°16'5 9.8
2017-Dec-02 17:30N 64°48' E 011°07'5 9.3
2017-Dec-02 16:59N 64°45' E 010°59'5 9.2
2017-Dec-02 16:30N 64°42' E 010°51'5 9.0
2017-Dec-02 16:00N 64°39' E 010°44'4 8.9
2017-Dec-02 15:30N 64°36' E 010°36'5 9.0
2017-Dec-02 15:00N 64°32' E 010°29'4 8.8
2017-Dec-02 14:30N 64°29' E 010°22'3 7.0
2017-Dec-02 14:00N 64°26' E 010°27'4 8.5
2017-Dec-02 13:30N 64°22' E 010°28'4 8.9
2017-Dec-02 13:00N 64°18' E 010°23'5 8.9
2017-Dec-02 12:30N 64°15' E 010°17'5 9.7
2017-Dec-02 11:59N 64°11' E 010°09'5 9.6
2017-Dec-02 11:30N 64°07' E 010°03'4 7.9
2017-Dec-02 11:00N 64°03' E 010°03'5 9.7
2017-Dec-02 10:30N 63°59' E 009°56'5 9.5
2017-Dec-02 10:00N 63°56' E 009°48'5 9.6
2017-Dec-02 09:30N 63°52' E 009°42'5 9.7
2017-Dec-02 09:00N 63°48' E 009°35'4 8.4
2017-Dec-02 08:30N 63°44' E 009°35'1 1.1
2017-Dec-02 08:00N 63°44' E 009°35'0 0.0
2017-Dec-02 07:30N 63°44' E 009°35'0 0.0
2017-Dec-02 07:00N 63°44' E 009°35'0 0.0
2017-Dec-02 06:30N 63°44' E 009°35'0 0.0
2017-Dec-02 06:00N 63°44' E 009°35'0 0.0
2017-Dec-02 05:30N 63°44' E 009°35'0 0.0
2017-Dec-02 05:00N 63°44' E 009°35'0 0.0
2017-Dec-02 04:30N 63°44' E 009°35'0 0.0
2017-Dec-02 04:00N 63°44' E 009°35'0 0.0
2017-Dec-02 03:29N 63°44' E 009°35'0 0.0
2017-Dec-02 03:00N 63°44' E 009°35'0 0.0
2017-Dec-02 02:30N 63°44' E 009°35'0 0.0
2017-Dec-02 02:00N 63°44' E 009°35'0 0.0
2017-Dec-02 01:30N 63°44' E 009°35'0 0.0
2017-Dec-02 01:00N 63°44' E 009°35'0 0.0
2017-Dec-02 00:30N 63°44' E 009°35'0 0.0
2017-Dec-02 00:00N 63°44' E 009°35'0 0.4
2017-Dec-01 23:30N 63°44' E 009°35'5 9.8
2017-Dec-01 23:00N 63°40' E 009°29'4 7.8
2017-Dec-01 22:30N 63°38' E 009°36'4 8.3
2017-Dec-01 22:00N 63°39' E 009°46'2 4.1
2017-Dec-01 21:30N 63°37' E 009°43'0 0.0
2017-Dec-01 21:00N 63°37' E 009°43'0 0.0
2017-Dec-01 20:30N 63°37' E 009°43'0 0.0
2017-Dec-01 20:00N 63°37' E 009°43'0 0.0
2017-Dec-01 19:30N 63°37' E 009°43'0 0.0
2017-Dec-01 19:00N 63°37' E 009°43'0 0.0
2017-Dec-01 18:29N 63°37' E 009°43'0 0.0
2017-Dec-01 18:00N 63°37' E 009°43'0 0.0
2017-Dec-01 17:30N 63°37' E 009°43'  
Track history (hours):
 
Tides and Currents Weather Stations Pressure Air Temp Water Temp Dewpoint Dewpoint Depression Visibility Wind Speed Wind Dir Waves Ship Positions

Biotrans

Last reported at 2017-Dec-11 17:00 UTC. Time now 2017-Dec-12 21:59 UTC.
Position N 67°57' E 015°30'.

Length 55 m; draft 5.5 m.

Type: Cargo ship. MMSI: 259260000.

Date/timePositionNaut miles runAvg speedWind from/ knotsBaromVisibWave heightAir tempDewpointWater temp
2017-Dec-11 17:00N 67°57' E 015°30'4 8.3
2017-Dec-11 16:30N 67°59' E 015°21'2 4.0
2017-Dec-11 16:00N 68°01' E 015°20'0 0.0
2017-Dec-11 15:30N 68°01' E 015°20'0 0.0
2017-Dec-11 15:00N 68°01' E 015°20'3 5.3
2017-Dec-11 14:29N 67°58' E 015°20'4 9.0
2017-Dec-11 14:00N 67°55' E 015°14'5 9.6
2017-Dec-11 13:30N 67°55' E 015°01'5 9.9
2017-Dec-11 13:00N 67°53' E 014°49'5 9.9
2017-Dec-11 12:30N 67°50' E 014°38'5 9.6
2017-Dec-11 12:00N 67°46' E 014°32'510.2
2017-Dec-11 11:30N 67°41' E 014°31'510.1
2017-Dec-11 11:00N 67°36' E 014°30'510.3
2017-Dec-11 10:30N 67°31' E 014°29'510.6
2017-Dec-11 10:01N 67°26' E 014°27'510.4
2017-Dec-11 09:30N 67°21' E 014°25'4 7.2
2017-Dec-11 09:00N 67°17' E 014°23'0 0.0
2017-Dec-11 08:30N 67°17' E 014°23'0 0.0
2017-Dec-11 08:00N 67°17' E 014°23'0 0.0
2017-Dec-11 07:30N 67°17' E 014°23'0 0.9
2017-Dec-11 07:01N 67°17' E 014°21'3 5.4
2017-Dec-11 06:30N 67°15' E 014°16'2 4.9
2017-Dec-11 06:00N 67°14' E 014°11'3 5.4
2017-Dec-11 05:31N 67°12' E 014°07'3 5.9
2017-Dec-11 05:01N 67°09' E 014°02'3 6.9
2017-Dec-11 04:30N 67°07' E 013°56'1 1.4
2017-Dec-11 04:00N 67°07' E 013°54'3 6.7
2017-Dec-11 03:31N 67°04' E 013°53'5 9.9
2017-Dec-11 03:01N 67°01' E 013°43'5 9.9
2017-Dec-11 02:31N 66°58' E 013°33'4 8.7
2017-Dec-11 02:00N 66°54' E 013°27'5 9.6
2017-Dec-11 01:30N 66°51' E 013°18'5 9.2
2017-Dec-11 01:00N 66°47' E 013°14'5 9.8
2017-Dec-11 00:30N 66°42' E 013°10'5 9.8
2017-Dec-11 00:01N 66°37' E 013°05'5 9.2
2017-Dec-10 23:30N 66°33' E 013°02'4 8.7
2017-Dec-10 23:00N 66°29' E 012°59'5 9.9
2017-Dec-10 22:30N 66°24' E 012°58'5 9.1
2017-Dec-10 22:00N 66°20' E 012°52'5 9.3
2017-Dec-10 21:30N 66°18' E 012°42'5 9.6
2017-Dec-10 21:01N 66°15' E 012°32'5 9.5
2017-Dec-10 20:30N 66°12' E 012°22'5 9.6
2017-Dec-10 20:00N 66°10' E 012°12'5 9.3
2017-Dec-10 19:30N 66°06' E 012°07'5 9.3
2017-Dec-10 19:00N 66°01' E 012°11'2 5.0
2017-Dec-10 18:30N 66°00' E 012°16'0 0.0
2017-Dec-10 18:00N 66°00' E 012°16'0 0.0
2017-Dec-10 17:30N 66°00' E 012°16'0 0.0
2017-Dec-10 17:00N 66°00' E 012°16'0 0.0
2017-Dec-10 16:30N 66°00' E 012°16'0 0.4
2017-Dec-10 16:00N 66°00' E 012°16'1 2.5
2017-Dec-10 15:30N 66°01' E 012°13'3 5.1
2017-Dec-10 15:00N 66°02' E 012°07'5 9.1
2017-Dec-10 14:30N 65°57' E 012°04'5 9.1
2017-Dec-10 14:00N 65°55' E 011°55'2 3.4
2017-Dec-10 13:30N 65°53' E 011°56'1 2.9
2017-Dec-10 13:00N 65°54' E 011°55'5 9.3
2017-Dec-10 12:30N 65°56' E 012°05'3 6.9
2017-Dec-10 12:00N 65°55' E 012°12'5 8.9
2017-Dec-10 11:30N 65°56' E 012°23'5 9.8
2017-Dec-10 11:00N 65°51' E 012°22'5 9.8
2017-Dec-10 10:30N 65°47' E 012°19'5 9.7
2017-Dec-10 10:00N 65°42' E 012°16'5 9.8
2017-Dec-10 09:30N 65°37' E 012°12'5 9.8
2017-Dec-10 09:00N 65°33' E 012°05'5 9.7
2017-Dec-10 08:30N 65°29' E 011°59'4 8.6
2017-Dec-10 08:00N 65°25' E 011°57'4 8.7
2017-Dec-10 07:30N 65°21' E 012°03'5 9.5
2017-Dec-10 07:00N 65°17' E 011°58'5 9.9
2017-Dec-10 06:30N 65°13' E 011°53'5 9.6
2017-Dec-10 06:00N 65°08' E 011°50'5 9.5
2017-Dec-10 05:30N 65°04' E 011°45'5 9.3
2017-Dec-10 05:00N 65°00' E 011°38'5 9.3
2017-Dec-10 04:31N 64°57' E 011°30'5 9.5
2017-Dec-10 04:00N 64°54' E 011°21'510.1
2017-Dec-10 03:30N 64°51' E 011°13'510.0
2017-Dec-10 03:01N 64°47' E 011°05'5 9.6
2017-Dec-10 02:30N 64°44' E 010°56'5 9.4
2017-Dec-10 02:00N 64°41' E 010°48'5 9.6
2017-Dec-10 01:30N 64°37' E 010°42'5 9.7
2017-Dec-10 01:00N 64°32' E 010°36'5 9.5
2017-Dec-10 00:30N 64°28' E 010°30'5 9.2
2017-Dec-10 00:00N 64°24' E 010°26'5 8.9
2017-Dec-09 23:30N 64°20' E 010°27'5 9.5
2017-Dec-09 23:00N 64°16' E 010°19'4 8.9
2017-Dec-09 22:30N 64°13' E 010°13'5 9.8
2017-Dec-09 22:00N 64°09' E 010°07'5 9.6
2017-Dec-09 21:30N 64°05' E 010°00'4 7.6
2017-Dec-09 21:00N 64°01' E 009°59'5 9.8
2017-Dec-09 20:30N 63°57' E 009°54'4 7.2
2017-Dec-09 20:00N 63°53' E 009°52'0 0.0
2017-Dec-09 19:30N 63°53' E 009°52'0 0.0
2017-Dec-09 19:00N 63°53' E 009°52'0 0.0
2017-Dec-09 18:31N 63°53' E 009°52'0 0.0
2017-Dec-09 18:00N 63°53' E 009°52'0 0.0
2017-Dec-09 17:30N 63°53' E 009°52'0 0.0
2017-Dec-09 17:00N 63°53' E 009°52'0 0.0
2017-Dec-09 16:30N 63°53' E 009°52'0 0.0
2017-Dec-09 16:00N 63°53' E 009°52'0 0.0
2017-Dec-09 15:30N 63°53' E 009°52'0 0.7
2017-Dec-09 15:00N 63°54' E 009°53'3 6.7
2017-Dec-09 14:30N 63°53' E 009°45'5 9.7
2017-Dec-09 14:00N 63°50' E 009°37'5 9.9
2017-Dec-09 13:30N 63°45' E 009°32'5 9.5
2017-Dec-09 13:00N 63°40' E 009°29'3 6.3
2017-Dec-09 12:30N 63°38' E 009°34'4 8.8
2017-Dec-09 12:00N 63°39' E 009°43'2 4.2
2017-Dec-09 11:30N 63°37' E 009°43'0 0.0
2017-Dec-09 11:00N 63°37' E 009°43'0 0.0
2017-Dec-09 10:30N 63°37' E 009°43'0 0.0
2017-Dec-09 10:00N 63°37' E 009°43'0 0.0
2017-Dec-09 09:30N 63°37' E 009°43'0 0.0
2017-Dec-09 09:00N 63°37' E 009°43'0 0.0
2017-Dec-09 08:30N 63°37' E 009°43'0 0.0
2017-Dec-09 08:00N 63°37' E 009°43'0 0.0
2017-Dec-09 07:31N 63°37' E 009°43'0 0.0
2017-Dec-09 06:59N 63°37' E 009°43'0 0.0
2017-Dec-09 06:30N 63°37' E 009°43'0 0.0
2017-Dec-09 06:00N 63°37' E 009°43'0 0.0
2017-Dec-09 05:29N 63°37' E 009°43'0 0.0
2017-Dec-09 05:00N 63°37' E 009°43'0 0.0
2017-Dec-09 04:30N 63°37' E 009°43'0 0.8
2017-Dec-09 04:01N 63°37' E 009°44'2 4.5
2017-Dec-09 03:31N 63°39' E 009°41'4 8.7
2017-Dec-09 03:00N 63°38' E 009°31'3 6.5
2017-Dec-09 02:31N 63°41' E 009°29'5 9.4
2017-Dec-09 01:59N 63°45' E 009°32'5 9.4
2017-Dec-09 01:30N 63°50' E 009°37'5 9.3
2017-Dec-09 00:59N 63°53' E 009°44'5 9.3
2017-Dec-09 00:30N 63°57' E 009°49'4 9.0
2017-Dec-09 00:00N 63°60' E 009°57'4 8.8
2017-Dec-08 23:30N 64°03' E 010°03'4 7.7
2017-Dec-08 23:00N 64°07' E 010°03'4 9.1
2017-Dec-08 22:31N 64°11' E 010°09'5 9.2
2017-Dec-08 22:00N 64°14' E 010°16'4 8.4
2017-Dec-08 21:30N 64°18' E 010°21'4 8.6
2017-Dec-08 21:00N 64°21' E 010°27'4 8.5
2017-Dec-08 20:30N 64°26' E 010°27'4 8.8
2017-Dec-08 20:00N 64°29' E 010°32'5 9.5
2017-Dec-08 19:30N 64°33' E 010°39'3 6.3
2017-Dec-08 19:00N 64°32' E 010°45'0 0.7
2017-Dec-08 18:30N 64°32' E 010°45'0 0.0
2017-Dec-08 18:00N 64°32' E 010°45'0 0.0
2017-Dec-08 17:30N 64°32' E 010°45'0 0.0
2017-Dec-08 17:00N 64°32' E 010°45'0 0.0
2017-Dec-08 16:30N 64°32' E 010°45'2 4.1
2017-Dec-08 16:00N 64°34' E 010°44'5 9.5
2017-Dec-08 15:29N 64°38' E 010°47'5 9.5
2017-Dec-08 15:00N 64°42' E 010°52'5 9.8
2017-Dec-08 14:30N 64°46' E 011°01'5 9.6
2017-Dec-08 14:00N 64°49' E 011°09'4 8.9
2017-Dec-08 13:30N 64°52' E 011°16'4 8.9
2017-Dec-08 13:00N 64°56' E 011°22'3 6.5
2017-Dec-08 12:31N 64°58' E 011°16'2 3.9
2017-Dec-08 12:00N 64°57' E 011°11'0 0.0
2017-Dec-08 11:30N 64°57' E 011°11'0 0.2
2017-Dec-08 11:01N 64°57' E 011°11'5 9.1
2017-Dec-08 10:30N 64°57' E 011°22'4 8.6
2017-Dec-08 10:01N 64°53' E 011°19'3 5.0
2017-Dec-08 09:31N 64°52' E 011°15'0 0.0
2017-Dec-08 09:01N 64°52' E 011°15'0 0.0
2017-Dec-08 08:31N 64°52' E 011°15'0 0.0
2017-Dec-08 08:00N 64°52' E 011°15'2 4.2
2017-Dec-08 07:31N 64°53' E 011°18'5 9.5
2017-Dec-08 07:00N 64°56' E 011°27'5 9.3
2017-Dec-08 06:30N 64°59' E 011°36'4 8.3
2017-Dec-08 06:00N 65°01' E 011°44'1 2.6
2017-Dec-08 05:30N 65°00' E 011°44'0 0.0
2017-Dec-08 05:00N 65°00' E 011°44'0 0.0
2017-Dec-08 04:30N 65°00' E 011°44'0 0.0
2017-Dec-08 04:00N 65°00' E 011°44'2 4.5
2017-Dec-08 03:30N 65°02' E 011°44'5 9.3
2017-Dec-08 03:00N 65°06' E 011°49'5 9.3
2017-Dec-08 02:30N 65°11' E 011°51'4 8.8
2017-Dec-08 02:00N 65°15' E 011°56'5 9.0
2017-Dec-08 01:30N 65°19' E 012°00'3 6.4
2017-Dec-08 01:00N 65°22' E 012°00'4 8.2
2017-Dec-08 00:30N 65°26' E 011°56'4 8.7
2017-Dec-08 00:00N 65°30' E 011°60'5 9.3
2017-Dec-07 23:30N 65°34' E 012°06'5 9.0
2017-Dec-07 23:00N 65°38' E 012°12'4 8.8
2017-Dec-07 22:31N 65°42' E 012°15'5 9.0
2017-Dec-07 21:59N 65°46' E 012°19'5 9.2
2017-Dec-07 21:30N 65°51' E 012°22'5 9.1
2017-Dec-07 21:00N 65°55' E 012°23'5 9.2
2017-Dec-07 20:30N 65°59' E 012°29'5 9.3
2017-Dec-07 20:01N 66°03' E 012°36'5 9.2
2017-Dec-07 19:30N 66°06' E 012°44'5 9.3
2017-Dec-07 18:59N 66°10' E 012°50'4 8.7
2017-Dec-07 18:30N 66°13' E 012°58'1 1.2
2017-Dec-07 17:59N 66°12' E 012°58'0 0.0
2017-Dec-07 17:30N 66°12' E 012°58'0 0.0
2017-Dec-07 16:59N 66°12' E 012°58'0 0.0
2017-Dec-07 16:30N 66°12' E 012°58'0 0.0
2017-Dec-07 15:59N 66°12' E 012°58'0 0.2
2017-Dec-07 15:30N 66°12' E 012°58'3 6.3
2017-Dec-07 15:00N 66°11' E 012°51'5 9.5
2017-Dec-07 14:29N 66°07' E 012°45'5 9.7
2017-Dec-07 14:00N 66°03' E 012°37'5 9.7
2017-Dec-07 13:30N 65°60' E 012°29'5 9.6
2017-Dec-07 13:00N 65°57' E 012°20'4 7.3
2017-Dec-07 12:30N 65°54' E 012°13'0 0.0
2017-Dec-07 12:00N 65°54' E 012°13'2 3.9
2017-Dec-07 11:30N 65°56' E 012°11'4 7.9
2017-Dec-07 11:00N 65°60' E 012°06'3 6.1
2017-Dec-07 10:30N 66°01' E 012°13'1 2.9
2017-Dec-07 10:00N 66°00' E 012°16'0 0.0
2017-Dec-07 09:30N 66°00' E 012°16'0 0.0
2017-Dec-07 09:00N 66°00' E 012°16'0 0.0
2017-Dec-07 08:30N 66°00' E 012°16'0 0.0
2017-Dec-07 08:00N 66°00' E 012°16'0 0.0
2017-Dec-07 07:30N 66°00' E 012°16'3 5.6
2017-Dec-07 07:00N 66°02' E 012°11'5 9.5
2017-Dec-07 06:30N 66°06' E 012°07'5 9.8
2017-Dec-07 06:00N 66°11' E 012°13'510.6
2017-Dec-07 05:29N 66°13' E 012°24'510.6
2017-Dec-07 05:00N 66°16' E 012°36'510.4
2017-Dec-07 04:30N 66°19' E 012°46'510.3
2017-Dec-07 04:01N 66°21' E 012°57'5 9.8
2017-Dec-07 03:30N 66°26' E 012°59'5 9.8
2017-Dec-07 03:00N 66°31' E 012°58'4 8.9
2017-Dec-07 02:30N 66°35' E 013°05'510.0
2017-Dec-07 02:00N 66°40' E 013°07'510.1
2017-Dec-07 01:30N 66°44' E 013°12'5 9.9
2017-Dec-07 01:00N 66°49' E 013°16'5 9.4
2017-Dec-07 00:30N 66°53' E 013°23'4 9.0
2017-Dec-07 00:00N 66°57' E 013°29'4 9.0
2017-Dec-06 23:31N 66°60' E 013°37'510.2
2017-Dec-06 23:01N 67°02' E 013°48'510.1
2017-Dec-06 22:30N 67°06' E 013°58'5 9.8
2017-Dec-06 22:01N 67°10' E 014°03'510.2
2017-Dec-06 21:30N 67°15' E 014°10'510.3
2017-Dec-06 21:01N 67°19' E 014°18'  
2017-Dec-04 10:30N 67°40' E 014°33'4 8.2
2017-Dec-04 10:00N 67°38' E 014°42'5 9.6
2017-Dec-04 09:30N 67°38' E 014°55'5 9.8
2017-Dec-04 09:00N 67°37' E 015°08'5 9.9
2017-Dec-04 08:30N 67°37' E 015°21'1 1.4
2017-Dec-04 08:00N 67°36' E 015°22'0 0.0
2017-Dec-04 07:28N 67°36' E 015°22'3 6.0
2017-Dec-04 07:00N 67°37' E 015°15'5 9.6
2017-Dec-04 06:30N 67°36' E 015°03'510.0
2017-Dec-04 06:00N 67°34' E 014°51'5 9.9
2017-Dec-04 05:30N 67°31' E 014°41'5 9.8
2017-Dec-04 05:00N 67°27' E 014°33'510.2
2017-Dec-04 04:30N 67°23' E 014°26'510.1
2017-Dec-04 04:00N 67°19' E 014°18'510.1
2017-Dec-04 03:30N 67°15' E 014°11'5 9.8
2017-Dec-04 03:00N 67°11' E 014°04'5 9.6
2017-Dec-04 02:30N 67°06' E 013°58'5 9.9
2017-Dec-04 02:00N 67°03' E 013°50'5 9.8
2017-Dec-04 01:30N 67°00' E 013°39'5 9.3
2017-Dec-04 01:01N 66°58' E 013°29'4 8.8
2017-Dec-04 00:30N 66°53' E 013°24'5 9.5
2017-Dec-04 00:00N 66°50' E 013°16'5 9.8
2017-Dec-03 23:30N 66°45' E 013°13'4 8.1
2017-Dec-03 23:00N 66°41' E 013°17'3 5.3
2017-Dec-03 22:30N 66°40' E 013°23'4 8.8
2017-Dec-03 22:00N 66°41' E 013°12'5 8.9
2017-Dec-03 21:30N 66°37' E 013°05'4 8.6
2017-Dec-03 21:00N 66°33' E 013°02'4 8.1
2017-Dec-03 20:30N 66°29' E 012°59'5 9.1
2017-Dec-03 20:00N 66°25' E 012°59'5 9.1
2017-Dec-03 19:30N 66°20' E 012°57'5 9.2
2017-Dec-03 19:00N 66°16' E 012°55'5 9.0
2017-Dec-03 18:30N 66°12' E 012°51'4 8.5
2017-Dec-03 18:00N 66°08' E 012°46'2 4.5
2017-Dec-03 17:30N 66°10' E 012°41'0 0.0
2017-Dec-03 17:00N 66°10' E 012°41'3 5.4
2017-Dec-03 16:29N 66°12' E 012°38'4 8.3
2017-Dec-03 15:59N 66°15' E 012°30'4 8.6
2017-Dec-03 15:30N 66°17' E 012°22'4 8.7
2017-Dec-03 15:00N 66°21' E 012°24'1 1.8
2017-Dec-03 14:30N 66°22' E 012°23'0 0.0
2017-Dec-03 14:00N 66°22' E 012°23'0 0.0
2017-Dec-03 13:30N 66°22' E 012°23'0 0.0
2017-Dec-03 13:00N 66°22' E 012°23'0 0.0
2017-Dec-03 12:30N 66°22' E 012°23'0 0.0
2017-Dec-03 12:00N 66°22' E 012°23'0 0.0
2017-Dec-03 11:30N 66°22' E 012°23'0 0.0
2017-Dec-03 11:00N 66°22' E 012°23'0 0.0
2017-Dec-03 10:30N 66°22' E 012°23'0 0.0
2017-Dec-03 10:00N 66°22' E 012°23'0 0.0
2017-Dec-03 09:30N 66°22' E 012°23'0 0.0
2017-Dec-03 09:00N 66°22' E 012°23'0 0.0
2017-Dec-03 08:30N 66°22' E 012°23'0 0.0
2017-Dec-03 08:00N 66°22' E 012°23'0 0.0
2017-Dec-03 07:30N 66°22' E 012°23'0 0.0
2017-Dec-03 07:00N 66°22' E 012°23'0 0.0
2017-Dec-03 06:30N 66°22' E 012°23'0 0.0
2017-Dec-03 06:00N 66°22' E 012°23'2 3.5
2017-Dec-03 05:30N 66°20' E 012°23'4 7.9
2017-Dec-03 05:00N 66°16' E 012°24'4 7.7
2017-Dec-03 04:30N 66°14' E 012°32'4 8.0
2017-Dec-03 04:00N 66°11' E 012°39'4 9.0
2017-Dec-03 03:30N 66°07' E 012°40'4 8.9
2017-Dec-03 03:00N 66°03' E 012°36'5 9.5
2017-Dec-03 02:30N 65°59' E 012°29'5 9.6
2017-Dec-03 01:59N 65°55' E 012°23'5 9.0
2017-Dec-03 01:29N 65°50' E 012°22'4 8.8
2017-Dec-03 01:00N 65°46' E 012°19'5 9.2
2017-Dec-03 00:30N 65°42' E 012°15'5 9.3
2017-Dec-02 23:59N 65°37' E 012°12'5 9.1
2017-Dec-02 23:30N 65°34' E 012°06'5 9.2
2017-Dec-02 23:00N 65°30' E 011°60'4 9.0
2017-Dec-02 22:30N 65°26' E 011°56'4 8.3
2017-Dec-02 22:00N 65°22' E 012°02'4 7.8
2017-Dec-02 21:30N 65°18' E 011°59'4 9.0
2017-Dec-02 21:00N 65°14' E 011°55'4 8.9
2017-Dec-02 20:30N 65°10' E 011°51'4 9.0
2017-Dec-02 20:00N 65°06' E 011°48'5 9.5
2017-Dec-02 19:30N 65°02' E 011°42'5 9.8
2017-Dec-02 19:00N 64°58' E 011°34'510.2
2017-Dec-02 18:30N 64°55' E 011°24'510.2
2017-Dec-02 18:01N 64°52' E 011°16'5 9.8
2017-Dec-02 17:30N 64°48' E 011°07'5 9.3
2017-Dec-02 16:59N 64°45' E 010°59'5 9.2
2017-Dec-02 16:30N 64°42' E 010°51'5 9.0
2017-Dec-02 16:00N 64°39' E 010°44'4 8.9
2017-Dec-02 15:30N 64°36' E 010°36'5 9.0
2017-Dec-02 15:00N 64°32' E 010°29'4 8.8
2017-Dec-02 14:30N 64°29' E 010°22'3 7.0
2017-Dec-02 14:00N 64°26' E 010°27'4 8.5
2017-Dec-02 13:30N 64°22' E 010°28'4 8.9
2017-Dec-02 13:00N 64°18' E 010°23'5 8.9
2017-Dec-02 12:30N 64°15' E 010°17'5 9.7
2017-Dec-02 11:59N 64°11' E 010°09'5 9.6
2017-Dec-02 11:30N 64°07' E 010°03'4 7.9
2017-Dec-02 11:00N 64°03' E 010°03'5 9.7
2017-Dec-02 10:30N 63°59' E 009°56'5 9.5
2017-Dec-02 10:00N 63°56' E 009°48'5 9.6
2017-Dec-02 09:30N 63°52' E 009°42'5 9.7
2017-Dec-02 09:00N 63°48' E 009°35'4 8.4
2017-Dec-02 08:30N 63°44' E 009°35'1 1.1
2017-Dec-02 08:00N 63°44' E 009°35'0 0.0
2017-Dec-02 07:30N 63°44' E 009°35'0 0.0
2017-Dec-02 07:00N 63°44' E 009°35'0 0.0
2017-Dec-02 06:30N 63°44' E 009°35'0 0.0
2017-Dec-02 06:00N 63°44' E 009°35'0 0.0
2017-Dec-02 05:30N 63°44' E 009°35'0 0.0
2017-Dec-02 05:00N 63°44' E 009°35'0 0.0
2017-Dec-02 04:30N 63°44' E 009°35'0 0.0
2017-Dec-02 04:00N 63°44' E 009°35'0 0.0
2017-Dec-02 03:29N 63°44' E 009°35'0 0.0
2017-Dec-02 03:00N 63°44' E 009°35'0 0.0
2017-Dec-02 02:30N 63°44' E 009°35'0 0.0
2017-Dec-02 02:00N 63°44' E 009°35'0 0.0
2017-Dec-02 01:30N 63°44' E 009°35'0 0.0
2017-Dec-02 01:00N 63°44' E 009°35'0 0.0
2017-Dec-02 00:30N 63°44' E 009°35'0 0.0
2017-Dec-02 00:00N 63°44' E 009°35'0 0.4
2017-Dec-01 23:30N 63°44' E 009°35'5 9.8
2017-Dec-01 23:00N 63°40' E 009°29'4 7.8
2017-Dec-01 22:30N 63°38' E 009°36'4 8.3
2017-Dec-01 22:00N 63°39' E 009°46'2 4.1
2017-Dec-01 21:30N 63°37' E 009°43'0 0.0
2017-Dec-01 21:00N 63°37' E 009°43'0 0.0
2017-Dec-01 20:30N 63°37' E 009°43'0 0.0
2017-Dec-01 20:00N 63°37' E 009°43'0 0.0
2017-Dec-01 19:30N 63°37' E 009°43'0 0.0
2017-Dec-01 19:00N 63°37' E 009°43'0 0.0
2017-Dec-01 18:29N 63°37' E 009°43'0 0.0
2017-Dec-01 18:00N 63°37' E 009°43'0 0.0
2017-Dec-01 17:30N 63°37' E 009°43'  

Dump ship's entire track history